sensor_id;sensor_type;location;lat;lon;timestamp;pressure;altitude;pressure_sealevel;temperature;humidity
72921;BME280;61064;51.654;5.476;2024-01-06T00:02:15;100357.44;;;7.09;100.00
72921;BME280;61064;51.654;5.476;2024-01-06T00:04:40;100362.75;;;7.10;100.00
72921;BME280;61064;51.654;5.476;2024-01-06T00:07:05;100355.53;;;6.99;100.00
72921;BME280;61064;51.654;5.476;2024-01-06T00:09:30;100375.88;;;7.03;100.00
72921;BME280;61064;51.654;5.476;2024-01-06T00:11:59;100372.28;;;6.98;100.00
72921;BME280;61064;51.654;5.476;2024-01-06T00:14:27;100383.66;;;6.91;100.00
72921;BME280;61064;51.654;5.476;2024-01-06T00:16:52;100400.38;;;6.90;100.00
72921;BME280;61064;51.654;5.476;2024-01-06T00:19:18;100383.47;;;6.79;100.00
72921;BME280;61064;51.654;5.476;2024-01-06T00:21:43;100379.00;;;6.73;100.00
72921;BME280;61064;51.654;5.476;2024-01-06T00:24:08;100392.22;;;6.75;100.00
72921;BME280;61064;51.654;5.476;2024-01-06T00:26:34;100404.56;;;6.76;100.00
72921;BME280;61064;51.654;5.476;2024-01-06T00:28:59;100385.03;;;6.64;100.00
72921;BME280;61064;51.654;5.476;2024-01-06T00:31:24;100396.53;;;6.66;100.00
72921;BME280;61064;51.654;5.476;2024-01-06T00:33:50;100405.38;;;6.68;100.00
72921;BME280;61064;51.654;5.476;2024-01-06T00:36:15;100398.22;;;6.61;100.00
72921;BME280;61064;51.654;5.476;2024-01-06T00:38:41;100403.44;;;6.57;100.00
72921;BME280;61064;51.654;5.476;2024-01-06T00:41:06;100408.78;;;6.61;100.00
72921;BME280;61064;51.654;5.476;2024-01-06T00:43:31;100404.25;;;6.54;100.00
72921;BME280;61064;51.654;5.476;2024-01-06T00:45:57;100410.44;;;6.55;100.00
72921;BME280;61064;51.654;5.476;2024-01-06T00:48:22;100417.53;;;6.57;100.00
72921;BME280;61064;51.654;5.476;2024-01-06T00:50:47;100406.88;;;6.53;100.00
72921;BME280;61064;51.654;5.476;2024-01-06T00:53:13;100397.97;;;6.48;100.00
72921;BME280;61064;51.654;5.476;2024-01-06T00:55:38;100409.47;;;6.50;100.00
72921;BME280;61064;51.654;5.476;2024-01-06T00:58:04;100409.47;;;6.50;100.00
72921;BME280;61064;51.654;5.476;2024-01-06T01:00:29;100417.41;;;6.50;100.00
72921;BME280;61064;51.654;5.476;2024-01-06T01:02:54;100419.97;;;6.47;100.00
72921;BME280;61064;51.654;5.476;2024-01-06T01:05:19;100422.66;;;6.48;100.00
72921;BME280;61064;51.654;5.476;2024-01-06T01:07:45;100420.84;;;6.44;100.00
72921;BME280;61064;51.654;5.476;2024-01-06T01:10:10;100431.38;;;6.43;100.00
72921;BME280;61064;51.654;5.476;2024-01-06T01:12:36;100427.84;;;6.42;100.00
72921;BME280;61064;51.654;5.476;2024-01-06T01:15:01;100428.75;;;6.44;100.00
72921;BME280;61064;51.654;5.476;2024-01-06T01:17:27;100429.56;;;6.39;100.00
72921;BME280;61064;51.654;5.476;2024-01-06T01:19:52;100427.72;;;6.36;100.00
72921;BME280;61064;51.654;5.476;2024-01-06T01:22:17;100440.06;;;6.36;100.00
72921;BME280;61064;51.654;5.476;2024-01-06T01:24:43;100432.13;;;6.34;100.00
72921;BME280;61064;51.654;5.476;2024-01-06T01:27:08;100448.03;;;6.39;100.00
72921;BME280;61064;51.654;5.476;2024-01-06T01:29:34;100453.28;;;6.37;100.00
72921;BME280;61064;51.654;5.476;2024-01-06T01:31:59;100453.28;;;6.37;100.00
72921;BME280;61064;51.654;5.476;2024-01-06T01:34:25;100463.88;;;6.37;100.00
72921;BME280;61064;51.654;5.476;2024-01-06T01:36:53;100456.72;;;6.32;100.00
72921;BME280;61064;51.654;5.476;2024-01-06T01:39:18;100464.63;;;6.30;100.00
72921;BME280;61064;51.654;5.476;2024-01-06T01:41:44;100464.53;;;6.25;100.00
72921;BME280;61064;51.654;5.476;2024-01-06T01:44:09;100480.44;;;6.27;100.00
72921;BME280;61064;51.654;5.476;2024-01-06T01:46:34;100469.81;;;6.24;100.00
72921;BME280;61064;51.654;5.476;2024-01-06T01:49:04;100476.78;;;6.20;100.00
72921;BME280;61064;51.654;5.476;2024-01-06T01:51:31;100477.66;;;6.21;100.00
72921;BME280;61064;51.654;5.476;2024-01-06T01:53:59;100483.84;;;6.21;100.00
72921;BME280;61064;51.654;5.476;2024-01-06T01:56:25;100494.44;;;6.23;100.00
72921;BME280;61064;51.654;5.476;2024-01-06T01:58:51;100490.03;;;6.22;100.00
72921;BME280;61064;51.654;5.476;2024-01-06T02:01:17;100493.47;;;6.18;100.00
72921;BME280;61064;51.654;5.476;2024-01-06T02:03:42;100512.94;;;6.23;100.00
72921;BME280;61064;51.654;5.476;2024-01-06T02:06:13;100519.88;;;6.19;100.00
72921;BME280;61064;51.654;5.476;2024-01-06T02:08:41;100519.84;;;6.16;100.00
72921;BME280;61064;51.654;5.476;2024-01-06T02:11:07;100508.25;;;6.08;100.00
72921;BME280;61064;51.654;5.476;2024-01-06T02:13:37;100523.16;;;6.05;100.00
72921;BME280;61064;51.654;5.476;2024-01-06T02:16:06;100515.09;;;5.99;100.00
72921;BME280;61064;51.654;5.476;2024-01-06T02:18:32;100517.69;;;5.96;100.00
72921;BME280;61064;51.654;5.476;2024-01-06T02:20:59;100526.50;;;5.98;100.00
72921;BME280;61064;51.654;5.476;2024-01-06T02:23:25;100524.63;;;5.91;100.00
72921;BME280;61064;51.654;5.476;2024-01-06T02:25:50;100536.91;;;5.89;100.00
72921;BME280;61064;51.654;5.476;2024-01-06T02:28:16;100553.53;;;5.84;100.00
72921;BME280;61064;51.654;5.476;2024-01-06T02:30:41;100544.66;;;5.82;100.00
72921;BME280;61064;51.654;5.476;2024-01-06T02:33:07;100540.09;;;5.75;100.00
72921;BME280;61064;51.654;5.476;2024-01-06T02:35:32;100536.47;;;5.70;100.00
72921;BME280;61064;51.654;5.476;2024-01-06T02:37:57;100554.16;;;5.74;100.00
72921;BME280;61064;51.654;5.476;2024-01-06T02:40:22;100553.13;;;5.66;100.00
72921;BME280;61064;51.654;5.476;2024-01-06T02:42:48;100546.84;;;5.61;100.00
72921;BME280;61064;51.654;5.476;2024-01-06T02:45:13;100548.53;;;5.58;100.00
72921;BME280;61064;51.654;5.476;2024-01-06T02:47:38;100556.56;;;5.62;100.00
72921;BME280;61064;51.654;5.476;2024-01-06T02:50:05;100562.69;;;5.61;100.00
72921;BME280;61064;51.654;5.476;2024-01-06T02:52:30;100559.06;;;5.56;100.00
72921;BME280;61064;51.654;5.476;2024-01-06T02:54:55;100565.28;;;5.60;100.00
72921;BME280;61064;51.654;5.476;2024-01-06T02:57:21;100558.09;;;5.53;100.00
72921;BME280;61064;51.654;5.476;2024-01-06T02:59:46;100563.38;;;5.53;100.00
72921;BME280;61064;51.654;5.476;2024-01-06T03:02:12;100576.66;;;5.56;100.00
72921;BME280;61064;51.654;5.476;2024-01-06T03:04:37;100571.28;;;5.51;100.00
72921;BME280;61064;51.654;5.476;2024-01-06T03:07:02;100585.38;;;5.53;100.00
72921;BME280;61064;51.654;5.476;2024-01-06T03:09:30;100573.78;;;5.47;100.00
72921;BME280;61064;51.654;5.476;2024-01-06T03:11:56;100587.00;;;5.48;100.00
72921;BME280;61064;51.654;5.476;2024-01-06T03:14:21;100598.50;;;5.50;100.00
72921;BME280;61064;51.654;5.476;2024-01-06T03:16:46;100586.06;;;5.44;100.00
72921;BME280;61064;51.654;5.476;2024-01-06T03:19:12;100598.22;;;5.38;100.00
72921;BME280;61064;51.654;5.476;2024-01-06T03:21:37;100589.31;;;5.33;100.00
72921;BME280;61064;51.654;5.476;2024-01-06T03:24:04;100606.94;;;5.35;100.00
72921;BME280;61064;51.654;5.476;2024-01-06T03:26:29;100615.75;;;5.36;100.00
72921;BME280;61064;51.654;5.476;2024-01-06T03:28:55;100608.66;;;5.33;100.00
72921;BME280;61064;51.654;5.476;2024-01-06T03:31:23;100616.47;;;5.29;100.00
72921;BME280;61064;51.654;5.476;2024-01-06T03:33:48;100609.38;;;5.26;100.00
72921;BME280;61064;51.654;5.476;2024-01-06T03:36:14;100612.00;;;5.26;100.00
72921;BME280;61064;51.654;5.476;2024-01-06T03:38:41;100617.22;;;5.25;100.00
72921;BME280;61064;51.654;5.476;2024-01-06T03:41:07;100626.97;;;5.27;100.00
72921;BME280;61064;51.654;5.476;2024-01-06T03:43:32;100625.09;;;5.22;100.00
72921;BME280;61064;51.654;5.476;2024-01-06T03:45:57;100634.00;;;5.27;100.00
72921;BME280;61064;51.654;5.476;2024-01-06T03:48:25;100636.53;;;5.22;100.00
72921;BME280;61064;51.654;5.476;2024-01-06T03:50:50;100642.69;;;5.23;100.00
72921;BME280;61064;51.654;5.476;2024-01-06T03:53:16;100630.22;;;5.16;100.00
72921;BME280;61064;51.654;5.476;2024-01-06T03:55:41;100633.69;;;5.15;100.00
72921;BME280;61064;51.654;5.476;2024-01-06T03:58:06;100635.38;;;5.13;100.00
72921;BME280;61064;51.654;5.476;2024-01-06T04:00:31;100626.47;;;5.08;100.00
72921;BME280;61064;51.654;5.476;2024-01-06T04:03:00;100643.22;;;5.10;100.00
72921;BME280;61064;51.654;5.476;2024-01-06T04:05:25;100638.75;;;5.06;100.00
72921;BME280;61064;51.654;5.476;2024-01-06T04:07:50;100639.59;;;5.05;100.00
72921;BME280;61064;51.654;5.476;2024-01-06T04:10:16;100653.72;;;5.07;100.00
72921;BME280;61064;51.654;5.476;2024-01-06T04:12:41;100651.88;;;5.04;100.00
72921;BME280;61064;51.654;5.476;2024-01-06T04:15:07;100664.13;;;5.02;100.00
72921;BME280;61064;51.654;5.476;2024-01-06T04:17:32;100665.13;;;5.06;100.00
72921;BME280;61064;51.654;5.476;2024-01-06T04:19:58;100648.13;;;4.94;100.00
72921;BME280;61064;51.654;5.476;2024-01-06T04:22:24;100665.91;;;5.03;100.00
72921;BME280;61064;51.654;5.476;2024-01-06T04:24:49;100648.03;;;4.91;100.00
72921;BME280;61064;51.654;5.476;2024-01-06T04:27:14;100655.94;;;4.91;100.00
72921;BME280;61064;51.654;5.476;2024-01-06T04:29:43;100663.00;;;4.92;100.00
72921;BME280;61064;51.654;5.476;2024-01-06T04:32:08;100656.84;;;4.92;100.00
72921;BME280;61064;51.654;5.476;2024-01-06T04:34:33;100664.75;;;4.92;100.00
72921;BME280;61064;51.654;5.476;2024-01-06T04:36:59;100672.81;;;4.98;100.00
72921;BME280;61064;51.654;5.476;2024-01-06T04:39:24;100678.94;;;4.97;100.00
72921;BME280;61064;51.654;5.476;2024-01-06T04:41:49;100666.53;;;4.93;100.00
72921;BME280;61064;51.654;5.476;2024-01-06T04:44:15;100685.16;;;4.99;100.00
72921;BME280;61064;51.654;5.476;2024-01-06T04:46:40;100686.03;;;4.99;100.00
72921;BME280;61064;51.654;5.476;2024-01-06T04:49:05;100682.47;;;4.97;100.00
72921;BME280;61064;51.654;5.476;2024-01-06T04:51:31;100678.97;;;4.98;100.00
72921;BME280;61064;51.654;5.476;2024-01-06T04:53:56;100693.84;;;4.95;100.00
72921;BME280;61064;51.654;5.476;2024-01-06T04:56:22;100690.38;;;4.97;100.00
72921;BME280;61064;51.654;5.476;2024-01-06T04:58:50;100700.00;;;4.95;100.00
72921;BME280;61064;51.654;5.476;2024-01-06T05:01:15;100697.31;;;4.94;100.00
72921;BME280;61064;51.654;5.476;2024-01-06T05:03:41;100694.63;;;4.92;100.00
72921;BME280;61064;51.654;5.476;2024-01-06T05:06:06;100699.91;;;4.92;100.00
72921;BME280;61064;51.654;5.476;2024-01-06T05:08:31;100698.13;;;4.91;100.00
72921;BME280;61064;51.654;5.476;2024-01-06T05:10:56;100706.03;;;4.91;100.00
72921;BME280;61064;51.654;5.476;2024-01-06T05:13:22;100715.66;;;4.89;100.00
72921;BME280;61064;51.654;5.476;2024-01-06T05:15:47;100728.91;;;4.92;100.00
72921;BME280;61064;51.654;5.476;2024-01-06T05:18:13;100728.00;;;4.92;100.00
72921;BME280;61064;51.654;5.476;2024-01-06T05:20:38;100738.59;;;4.93;100.00
72921;BME280;61064;51.654;5.476;2024-01-06T05:23:06;100731.53;;;4.92;100.00
72921;BME280;61064;51.654;5.476;2024-01-06T05:25:31;100724.31;;;4.85;100.00
72921;BME280;61064;51.654;5.476;2024-01-06T05:27:56;100728.78;;;4.88;100.00
72921;BME280;61064;51.654;5.476;2024-01-06T05:30:21;100743.88;;;4.93;100.00
72921;BME280;61064;51.654;5.476;2024-01-06T05:32:47;100739.31;;;4.88;100.00
72921;BME280;61064;51.654;5.476;2024-01-06T05:35:12;100740.22;;;4.88;100.00
72921;BME280;61064;51.654;5.476;2024-01-06T05:37:37;100730.41;;;4.83;100.00
72921;BME280;61064;51.654;5.476;2024-01-06T05:40:03;100740.06;;;4.82;100.00
72921;BME280;61064;51.654;5.476;2024-01-06T05:42:29;100736.56;;;4.83;100.00
72921;BME280;61064;51.654;5.476;2024-01-06T05:44:55;100760.47;;;4.89;100.00
72921;BME280;61064;51.654;5.476;2024-01-06T05:47:20;100746.22;;;4.83;100.00
72921;BME280;61064;51.654;5.476;2024-01-06T05:49:46;100759.50;;;4.87;100.00
72921;BME280;61064;51.654;5.476;2024-01-06T05:52:11;100753.19;;;4.81;100.00
72921;BME280;61064;51.654;5.476;2024-01-06T05:54:40;100759.34;;;4.81;100.00
72921;BME280;61064;51.654;5.476;2024-01-06T05:57:06;100760.19;;;4.80;100.00
72921;BME280;61064;51.654;5.476;2024-01-06T05:59:34;100764.53;;;4.78;100.00
72921;BME280;61064;51.654;5.476;2024-01-06T06:02:00;100768.19;;;4.83;100.00
72921;BME280;61064;51.654;5.476;2024-01-06T06:04:25;100768.09;;;4.80;100.00
72921;BME280;61064;51.654;5.476;2024-01-06T06:06:51;100772.41;;;4.77;100.00
72921;BME280;61064;51.654;5.476;2024-01-06T06:09:16;100777.63;;;4.75;100.00
72921;BME280;61064;51.654;5.476;2024-01-06T06:11:41;100774.94;;;4.74;100.00
72921;BME280;61064;51.654;5.476;2024-01-06T06:14:08;100771.31;;;4.70;100.00
72921;BME280;61064;51.654;5.476;2024-01-06T06:16:33;100789.75;;;4.70;100.00
72921;BME280;61064;51.654;5.476;2024-01-06T06:18:58;100789.72;;;4.69;100.00
72921;BME280;61064;51.654;5.476;2024-01-06T06:21:24;100801.16;;;4.69;100.00
72921;BME280;61064;51.654;5.476;2024-01-06T06:23:50;100804.69;;;4.70;100.00
72921;BME280;61064;51.654;5.476;2024-01-06T06:26:15;100812.63;;;4.71;100.00
72921;BME280;61064;51.654;5.476;2024-01-06T06:28:41;100817.00;;;4.71;100.00
72921;BME280;61064;51.654;5.476;2024-01-06T06:31:07;100817.78;;;4.67;100.00
72921;BME280;61064;51.654;5.476;2024-01-06T06:33:32;100812.50;;;4.67;100.00
72921;BME280;61064;51.654;5.476;2024-01-06T06:35:58;100830.97;;;4.68;100.00
72921;BME280;61064;51.654;5.476;2024-01-06T06:38:25;100828.19;;;4.62;100.00
72921;BME280;61064;51.654;5.476;2024-01-06T06:40:53;100824.59;;;4.60;100.00
72921;BME280;61064;51.654;5.476;2024-01-06T06:43:19;100848.50;;;4.66;100.00
72921;BME280;61064;51.654;5.476;2024-01-06T06:45:44;100855.47;;;4.64;100.00
72921;BME280;61064;51.654;5.476;2024-01-06T06:48:10;100844.00;;;4.62;100.00
72921;BME280;61064;51.654;5.476;2024-01-06T06:50:35;100832.25;;;4.51;100.00
72921;BME280;61064;51.654;5.476;2024-01-06T06:53:01;100864.13;;;4.60;100.00
72921;BME280;61064;51.654;5.476;2024-01-06T06:55:26;100848.13;;;4.54;100.00
72921;BME280;61064;51.654;5.476;2024-01-06T06:57:52;100858.59;;;4.52;100.00
72921;BME280;61064;51.654;5.476;2024-01-06T07:00:18;100853.19;;;4.48;100.00
72921;BME280;61064;51.654;5.476;2024-01-06T07:02:43;100868.16;;;4.49;100.00
72921;BME280;61064;51.654;5.476;2024-01-06T07:05:09;100872.53;;;4.48;100.00
72921;BME280;61064;51.654;5.476;2024-01-06T07:07:34;100889.09;;;4.44;100.00
72921;BME280;61064;51.654;5.476;2024-01-06T07:10:06;100899.66;;;4.46;100.00
72921;BME280;61064;51.654;5.476;2024-01-06T07:12:32;100896.75;;;4.37;100.00
72921;BME280;61064;51.654;5.476;2024-01-06T07:14:57;100903.81;;;4.38;100.00
72921;BME280;61064;51.654;5.476;2024-01-06T07:17:25;100909.16;;;4.41;100.00
72921;BME280;61064;51.654;5.476;2024-01-06T07:19:51;100917.13;;;4.42;100.00
72921;BME280;61064;51.654;5.476;2024-01-06T07:22:16;100902.81;;;4.34;100.00
72921;BME280;61064;51.654;5.476;2024-01-06T07:24:43;100900.91;;;4.29;100.00
72921;BME280;61064;51.654;5.476;2024-01-06T07:27:09;100908.81;;;4.30;100.00
72921;BME280;61064;51.654;5.476;2024-01-06T07:29:34;100913.09;;;4.27;100.00
72921;BME280;61064;51.654;5.476;2024-01-06T07:31:59;100924.75;;;4.35;100.00
72921;BME280;61064;51.654;5.476;2024-01-06T07:34:24;100909.72;;;4.31;100.00
72921;BME280;61064;51.654;5.476;2024-01-06T07:36:50;100924.81;;;4.36;100.00
72921;BME280;61064;51.654;5.476;2024-01-06T07:39:16;100922.03;;;4.32;100.00
72921;BME280;61064;51.654;5.476;2024-01-06T07:41:42;100922.88;;;4.31;100.00
72921;BME280;61064;51.654;5.476;2024-01-06T07:44:07;100929.09;;;4.33;100.00
72921;BME280;61064;51.654;5.476;2024-01-06T07:46:32;100928.16;;;4.31;100.00
72921;BME280;61064;51.654;5.476;2024-01-06T07:49:04;100925.44;;;4.28;100.00
72921;BME280;61064;51.654;5.476;2024-01-06T07:51:29;100942.16;;;4.30;100.00
72921;BME280;61064;51.654;5.476;2024-01-06T07:53:58;100938.69;;;4.31;100.00
72921;BME280;61064;51.654;5.476;2024-01-06T07:56:23;100935.00;;;4.26;100.00
72921;BME280;61064;51.654;5.476;2024-01-06T07:58:49;100951.78;;;4.29;100.00
72921;BME280;61064;51.654;5.476;2024-01-06T08:01:14;100969.53;;;4.35;100.00
72921;BME280;61064;51.654;5.476;2024-01-06T08:03:40;100963.06;;;4.25;100.00
72921;BME280;61064;51.654;5.476;2024-01-06T08:06:05;100979.03;;;4.30;100.00
72921;BME280;61064;51.654;5.476;2024-01-06T08:08:31;100971.88;;;4.26;100.00
72921;BME280;61064;51.654;5.476;2024-01-06T08:10:56;100968.25;;;4.22;100.00
72921;BME280;61064;51.654;5.476;2024-01-06T08:13:22;100972.63;;;4.22;100.00
72921;BME280;61064;51.654;5.476;2024-01-06T08:15:47;100980.47;;;4.20;100.00
72921;BME280;61064;51.654;5.476;2024-01-06T08:18:13;100995.63;;;4.27;100.00
72921;BME280;61064;51.654;5.476;2024-01-06T08:20:38;100997.38;;;4.27;100.00
72921;BME280;61064;51.654;5.476;2024-01-06T08:23:04;100999.88;;;4.24;100.00
72921;BME280;61064;51.654;5.476;2024-01-06T08:25:29;100993.47;;;4.15;100.00
72921;BME280;61064;51.654;5.476;2024-01-06T08:27:54;101011.16;;;4.19;100.00
72921;BME280;61064;51.654;5.476;2024-01-06T08:30:20;101012.97;;;4.21;100.00
72921;BME280;61064;51.654;5.476;2024-01-06T08:32:45;101016.34;;;4.16;100.00
72921;BME280;61064;51.654;5.476;2024-01-06T08:35:10;101023.34;;;4.16;100.00
72921;BME280;61064;51.654;5.476;2024-01-06T08:37:36;101011.69;;;4.09;100.00
72921;BME280;61064;51.654;5.476;2024-01-06T08:40:01;101024.09;;;4.12;100.00
72921;BME280;61064;51.654;5.476;2024-01-06T08:42:28;101011.47;;;4.03;100.00
72921;BME280;61064;51.654;5.476;2024-01-06T08:44:53;101026.66;;;4.10;100.00
72921;BME280;61064;51.654;5.476;2024-01-06T08:47:22;101023.06;;;4.08;100.00
72921;BME280;61064;51.654;5.476;2024-01-06T08:49:47;101024.84;;;4.09;100.00
72921;BME280;61064;51.654;5.476;2024-01-06T08:52:12;101038.00;;;4.09;100.00
72921;BME280;61064;51.654;5.476;2024-01-06T08:54:38;101050.56;;;4.16;100.00
72921;BME280;61064;51.654;5.476;2024-01-06T08:57:03;101039.06;;;4.14;100.00
72921;BME280;61064;51.654;5.476;2024-01-06T08:59:29;101046.00;;;4.12;100.00
72921;BME280;61064;51.654;5.476;2024-01-06T09:01:54;101057.63;;;4.17;100.00
72921;BME280;61064;51.654;5.476;2024-01-06T09:04:19;101064.56;;;4.15;100.00
72921;BME280;61064;51.654;5.476;2024-01-06T09:06:45;101066.22;;;4.13;100.00
72921;BME280;61064;51.654;5.476;2024-01-06T09:09:12;101072.34;;;4.12;100.00
72921;BME280;61064;51.654;5.476;2024-01-06T09:11:37;101078.50;;;4.13;100.00
72921;BME280;61064;51.654;5.476;2024-01-06T09:14:03;101073.22;;;4.11;100.00
72921;BME280;61064;51.654;5.476;2024-01-06T09:16:28;101071.34;;;4.09;100.00
72921;BME280;61064;51.654;5.476;2024-01-06T09:18:53;101084.41;;;4.06;100.00
72921;BME280;61064;51.654;5.476;2024-01-06T09:21:19;101082.69;;;4.06;100.00
72921;BME280;61064;51.654;5.476;2024-01-06T09:23:44;101086.97;;;4.04;100.00
72921;BME280;61064;51.654;5.476;2024-01-06T09:26:10;101094.75;;;4.01;100.00
72921;BME280;61064;51.654;5.476;2024-01-06T09:28:35;101106.25;;;4.03;100.00
72921;BME280;61064;51.654;5.476;2024-01-06T09:31:01;101095.66;;;4.02;100.00
72921;BME280;61064;51.654;5.476;2024-01-06T09:33:26;101107.19;;;4.05;100.00
72921;BME280;61064;51.654;5.476;2024-01-06T09:35:52;101097.28;;;3.98;100.00
72921;BME280;61064;51.654;5.476;2024-01-06T09:38:18;101107.06;;;4.02;100.00
72921;BME280;61064;51.654;5.476;2024-01-06T09:40:44;101100.75;;;3.97;100.00
72921;BME280;61064;51.654;5.476;2024-01-06T09:43:10;101109.44;;;3.95;100.00
72921;BME280;61064;51.654;5.476;2024-01-06T09:45:35;101108.53;;;3.94;100.00
72921;BME280;61064;51.654;5.476;2024-01-06T09:48:06;101118.25;;;3.95;100.00
72921;BME280;61064;51.654;5.476;2024-01-06T09:50:34;101118.09;;;3.92;100.00
72921;BME280;61064;51.654;5.476;2024-01-06T09:53:00;101129.47;;;3.91;100.00
72921;BME280;61064;51.654;5.476;2024-01-06T09:55:31;101143.75;;;3.98;100.00
72921;BME280;61064;51.654;5.476;2024-01-06T09:57:56;101154.34;;;3.99;100.00
72921;BME280;61064;51.654;5.476;2024-01-06T10:00:21;101148.25;;;4.00;100.00
72921;BME280;61064;51.654;5.476;2024-01-06T10:02:48;101157.16;;;4.04;100.00
72921;BME280;61064;51.654;5.476;2024-01-06T10:05:15;101146.53;;;4.01;100.00
72921;BME280;61064;51.654;5.476;2024-01-06T10:07:43;101155.25;;;4.00;100.00
72921;BME280;61064;51.654;5.476;2024-01-06T10:10:09;101150.88;;;4.00;100.00
72921;BME280;61064;51.654;5.476;2024-01-06T10:12:37;101150.16;;;4.04;100.00
72921;BME280;61064;51.654;5.476;2024-01-06T10:15:07;101169.56;;;4.06;100.00
72921;BME280;61064;51.654;5.476;2024-01-06T10:17:36;101157.91;;;4.01;100.00
72921;BME280;61064;51.654;5.476;2024-01-06T10:20:02;101151.16;;;4.08;100.00
72921;BME280;61064;51.654;5.476;2024-01-06T10:22:28;101152.84;;;4.06;100.00
72921;BME280;61064;51.654;5.476;2024-01-06T10:24:54;101168.81;;;4.10;100.00
72921;BME280;61064;51.654;5.476;2024-01-06T10:27:21;101171.44;;;4.10;100.00
72921;BME280;61064;51.654;5.476;2024-01-06T10:29:46;101171.28;;;4.06;100.00
72921;BME280;61064;51.654;5.476;2024-01-06T10:32:12;101160.69;;;4.04;100.00
72921;BME280;61064;51.654;5.476;2024-01-06T10:34:37;101178.56;;;4.13;100.00
72921;BME280;61064;51.654;5.476;2024-01-06T10:37:03;101177.72;;;4.14;100.00
72921;BME280;61064;51.654;5.476;2024-01-06T10:39:28;101182.09;;;4.13;100.00
72921;BME280;61064;51.654;5.476;2024-01-06T10:41:55;101167.91;;;4.10;100.00
72921;BME280;61064;51.654;5.476;2024-01-06T10:44:23;101182.31;;;4.19;100.00
72921;BME280;61064;51.654;5.476;2024-01-06T10:46:49;101176.94;;;4.16;100.00
72921;BME280;61064;51.654;5.476;2024-01-06T10:49:15;101176.13;;;4.17;100.00
72921;BME280;61064;51.654;5.476;2024-01-06T10:51:48;101185.25;;;4.27;100.00
72921;BME280;61064;51.654;5.476;2024-01-06T10:54:14;101172.81;;;4.23;100.00
72921;BME280;61064;51.654;5.476;2024-01-06T10:56:42;101189.00;;;4.34;100.00
72921;BME280;61064;51.654;5.476;2024-01-06T10:59:08;101193.47;;;4.36;100.00
72921;BME280;61064;51.654;5.476;2024-01-06T11:01:34;101174.78;;;4.29;100.00
72921;BME280;61064;51.654;5.476;2024-01-06T11:04:02;101181.09;;;4.34;100.00
72921;BME280;61064;51.654;5.476;2024-01-06T11:06:37;101187.31;;;4.36;100.00
72921;BME280;61064;51.654;5.476;2024-01-06T11:09:13;101186.91;;;4.25;100.00
72921;BME280;61064;51.654;5.476;2024-01-06T11:11:39;101189.63;;;4.27;100.00
72921;BME280;61064;51.654;5.476;2024-01-06T11:14:36;101203.78;;;4.30;100.00
72921;BME280;61064;51.654;5.476;2024-01-06T11:17:02;101196.59;;;4.26;100.00
72921;BME280;61064;51.654;5.476;2024-01-06T11:22:26;101203.09;;;4.36;100.00
72921;BME280;61064;51.654;5.476;2024-01-06T11:24:56;101202.03;;;4.31;100.00
72921;BME280;61064;51.654;5.476;2024-01-06T11:27:26;101192.34;;;4.30;100.00
72921;BME280;61064;51.654;5.476;2024-01-06T11:29:56;101200.31;;;4.31;100.00
72921;BME280;61064;51.654;5.476;2024-01-06T11:32:27;101205.50;;;4.30;100.00
72921;BME280;61064;51.654;5.476;2024-01-06T11:34:54;101199.31;;;4.28;100.00
72921;BME280;61064;51.654;5.476;2024-01-06T11:37:50;101204.75;;;4.32;100.00
72921;BME280;61064;51.654;5.476;2024-01-06T11:43:04;101216.19;;;4.33;100.00
72921;BME280;61064;51.654;5.476;2024-01-06T11:45:33;101222.28;;;4.32;100.00
72921;BME280;61064;51.654;5.476;2024-01-06T11:48:04;101215.28;;;4.32;100.00
72921;BME280;61064;51.654;5.476;2024-01-06T11:50:31;101217.00;;;4.32;100.00
72921;BME280;61064;51.654;5.476;2024-01-06T11:52:57;101208.13;;;4.28;100.00
72921;BME280;61064;51.654;5.476;2024-01-06T11:55:23;101212.47;;;4.28;100.00
72921;BME280;61064;51.654;5.476;2024-01-06T11:57:48;101217.75;;;4.28;100.00
72921;BME280;61064;51.654;5.476;2024-01-06T12:00:15;101216.94;;;4.30;100.00
72921;BME280;61064;51.654;5.476;2024-01-06T12:02:44;101216.00;;;4.28;100.00
72921;BME280;61064;51.654;5.476;2024-01-06T12:05:14;101220.38;;;4.28;100.00
72921;BME280;61064;51.654;5.476;2024-01-06T12:07:41;101214.06;;;4.24;100.00
72921;BME280;61064;51.654;5.476;2024-01-06T12:10:08;101226.34;;;4.24;100.00
72921;BME280;61064;51.654;5.476;2024-01-06T12:12:33;101224.50;;;4.21;100.00
72921;BME280;61064;51.654;5.476;2024-01-06T12:14:58;101225.41;;;4.22;100.00
72921;BME280;61064;51.654;5.476;2024-01-06T12:17:28;101227.91;;;4.18;100.00
72921;BME280;61064;51.654;5.476;2024-01-06T12:19:56;101224.34;;;4.16;100.00
72921;BME280;61064;51.654;5.476;2024-01-06T12:22:21;101217.94;;;4.10;100.00
72921;BME280;61064;51.654;5.476;2024-01-06T12:24:49;101227.75;;;4.14;100.00
72921;BME280;61064;51.654;5.476;2024-01-06T12:27:16;101211.53;;;4.03;100.00
72921;BME280;61064;51.654;5.476;2024-01-06T12:29:45;101211.59;;;4.05;100.00
72921;BME280;61064;51.654;5.476;2024-01-06T12:32:10;101216.94;;;4.06;100.00
72921;BME280;61064;51.654;5.476;2024-01-06T12:34:38;101221.53;;;4.12;100.00
72921;BME280;61064;51.654;5.476;2024-01-06T12:37:04;101220.50;;;4.08;100.00
72921;BME280;61064;51.654;5.476;2024-01-06T12:39:31;101225.19;;;4.15;100.00
72921;BME280;61064;51.654;5.476;2024-01-06T12:41:57;101215.38;;;4.11;100.00
72921;BME280;61064;51.654;5.476;2024-01-06T12:44:27;101232.34;;;4.19;100.00
72921;BME280;61064;51.654;5.476;2024-01-06T12:46:53;101224.44;;;4.19;100.00
72921;BME280;61064;51.654;5.476;2024-01-06T12:49:19;101210.38;;;4.19;100.00
72921;BME280;61064;51.654;5.476;2024-01-06T12:51:44;101228.81;;;4.19;100.00